sensor_id;sensor_type;location;lat;lon;timestamp;temperature;humidity
16974;DHT22;8603;46.944;7.412;2022-11-14T00:00:33;4.80;99.90
16974;DHT22;8603;46.944;7.412;2022-11-14T00:03:00;4.70;99.90
16974;DHT22;8603;46.944;7.412;2022-11-14T00:05:28;4.70;99.90
16974;DHT22;8603;46.944;7.412;2022-11-14T00:07:54;4.70;99.90
16974;DHT22;8603;46.944;7.412;2022-11-14T00:10:20;4.70;99.90
16974;DHT22;8603;46.944;7.412;2022-11-14T00:12:45;4.70;99.90
16974;DHT22;8603;46.944;7.412;2022-11-14T00:15:11;4.70;99.90
16974;DHT22;8603;46.944;7.412;2022-11-14T00:17:37;4.70;99.90
16974;DHT22;8603;46.944;7.412;2022-11-14T00:20:04;4.70;99.90
16974;DHT22;8603;46.944;7.412;2022-11-14T00:22:31;4.70;99.90
16974;DHT22;8603;46.944;7.412;2022-11-14T00:24:56;4.70;99.90
16974;DHT22;8603;46.944;7.412;2022-11-14T00:27:22;4.70;99.90
16974;DHT22;8603;46.944;7.412;2022-11-14T00:29:47;4.70;99.90
16974;DHT22;8603;46.944;7.412;2022-11-14T00:32:13;4.70;99.90
16974;DHT22;8603;46.944;7.412;2022-11-14T00:34:39;4.70;99.90
16974;DHT22;8603;46.944;7.412;2022-11-14T00:37:04;4.70;99.90
16974;DHT22;8603;46.944;7.412;2022-11-14T00:39:30;4.60;99.90
16974;DHT22;8603;46.944;7.412;2022-11-14T00:41:55;4.60;99.90
16974;DHT22;8603;46.944;7.412;2022-11-14T00:44:21;4.60;99.90
16974;DHT22;8603;46.944;7.412;2022-11-14T00:46:46;4.60;99.90
16974;DHT22;8603;46.944;7.412;2022-11-14T00:49:12;4.60;99.90
16974;DHT22;8603;46.944;7.412;2022-11-14T00:51:38;4.60;99.90
16974;DHT22;8603;46.944;7.412;2022-11-14T00:54:04;4.60;99.90
16974;DHT22;8603;46.944;7.412;2022-11-14T00:56:29;4.60;99.90
16974;DHT22;8603;46.944;7.412;2022-11-14T00:58:55;4.60;99.90
16974;DHT22;8603;46.944;7.412;2022-11-14T01:01:20;4.50;99.90
16974;DHT22;8603;46.944;7.412;2022-11-14T01:03:47;4.50;99.90
16974;DHT22;8603;46.944;7.412;2022-11-14T01:06:13;4.50;99.90
16974;DHT22;8603;46.944;7.412;2022-11-14T01:08:41;4.50;99.90
16974;DHT22;8603;46.944;7.412;2022-11-14T01:11:12;4.50;99.90
16974;DHT22;8603;46.944;7.412;2022-11-14T01:13:39;4.50;99.90
16974;DHT22;8603;46.944;7.412;2022-11-14T01:16:05;4.50;99.90
16974;DHT22;8603;46.944;7.412;2022-11-14T01:18:31;4.50;99.90
16974;DHT22;8603;46.944;7.412;2022-11-14T01:20:56;4.50;99.90
16974;DHT22;8603;46.944;7.412;2022-11-14T01:23:22;4.60;99.90
16974;DHT22;8603;46.944;7.412;2022-11-14T01:25:48;4.50;99.90
16974;DHT22;8603;46.944;7.412;2022-11-14T01:28:16;4.50;99.90
16974;DHT22;8603;46.944;7.412;2022-11-14T01:30:42;4.50;99.90
16974;DHT22;8603;46.944;7.412;2022-11-14T01:33:08;4.50;99.90
16974;DHT22;8603;46.944;7.412;2022-11-14T01:35:35;4.60;99.90
16974;DHT22;8603;46.944;7.412;2022-11-14T01:38:01;4.60;99.90
16974;DHT22;8603;46.944;7.412;2022-11-14T01:40:28;4.60;99.90
16974;DHT22;8603;46.944;7.412;2022-11-14T01:54:12;4.50;99.90
16974;DHT22;8603;46.944;7.412;2022-11-14T01:56:47;4.60;99.90
16974;DHT22;8603;46.944;7.412;2022-11-14T01:59:17;4.60;99.90
16974;DHT22;8603;46.944;7.412;2022-11-14T02:01:49;4.60;99.90
16974;DHT22;8603;46.944;7.412;2022-11-14T02:04:19;4.60;99.90
16974;DHT22;8603;46.944;7.412;2022-11-14T02:06:47;4.60;99.90
16974;DHT22;8603;46.944;7.412;2022-11-14T02:09:14;4.60;99.90
16974;DHT22;8603;46.944;7.412;2022-11-14T02:11:42;4.60;99.90
16974;DHT22;8603;46.944;7.412;2022-11-14T02:14:09;4.50;99.90
16974;DHT22;8603;46.944;7.412;2022-11-14T02:16:34;4.60;99.90
16974;DHT22;8603;46.944;7.412;2022-11-14T02:19:00;4.50;99.90
16974;DHT22;8603;46.944;7.412;2022-11-14T02:21:25;4.50;99.90
16974;DHT22;8603;46.944;7.412;2022-11-14T02:23:51;4.50;99.90
16974;DHT22;8603;46.944;7.412;2022-11-14T02:26:21;4.50;99.90
16974;DHT22;8603;46.944;7.412;2022-11-14T02:28:47;4.50;99.90
16974;DHT22;8603;46.944;7.412;2022-11-14T02:31:14;4.50;99.90
16974;DHT22;8603;46.944;7.412;2022-11-14T02:33:40;4.60;99.90
16974;DHT22;8603;46.944;7.412;2022-11-14T02:36:06;4.60;99.90
16974;DHT22;8603;46.944;7.412;2022-11-14T02:38:32;4.60;99.90
16974;DHT22;8603;46.944;7.412;2022-11-14T02:41:01;4.60;99.90
16974;DHT22;8603;46.944;7.412;2022-11-14T02:43:27;4.70;99.90
16974;DHT22;8603;46.944;7.412;2022-11-14T02:45:53;4.70;99.90
16974;DHT22;8603;46.944;7.412;2022-11-14T02:48:19;4.70;99.90
16974;DHT22;8603;46.944;7.412;2022-11-14T02:50:47;4.70;99.90
16974;DHT22;8603;46.944;7.412;2022-11-14T02:53:13;4.70;99.90
16974;DHT22;8603;46.944;7.412;2022-11-14T02:55:38;4.70;99.90
16974;DHT22;8603;46.944;7.412;2022-11-14T02:58:04;4.70;99.90
16974;DHT22;8603;46.944;7.412;2022-11-14T03:00:30;4.70;99.90
16974;DHT22;8603;46.944;7.412;2022-11-14T03:02:55;4.70;99.90
16974;DHT22;8603;46.944;7.412;2022-11-14T03:05:21;4.70;99.90
16974;DHT22;8603;46.944;7.412;2022-11-14T03:07:46;4.80;99.90
16974;DHT22;8603;46.944;7.412;2022-11-14T03:10:12;4.80;99.90
16974;DHT22;8603;46.944;7.412;2022-11-14T03:12:38;4.80;99.90
16974;DHT22;8603;46.944;7.412;2022-11-14T03:15:05;4.80;99.90
16974;DHT22;8603;46.944;7.412;2022-11-14T03:17:32;4.80;99.90
16974;DHT22;8603;46.944;7.412;2022-11-14T03:19:57;4.80;99.90
16974;DHT22;8603;46.944;7.412;2022-11-14T03:22:23;4.80;99.90
16974;DHT22;8603;46.944;7.412;2022-11-14T03:24:49;4.80;99.90
16974;DHT22;8603;46.944;7.412;2022-11-14T03:27:14;4.80;99.90
16974;DHT22;8603;46.944;7.412;2022-11-14T03:29:40;4.80;99.90
16974;DHT22;8603;46.944;7.412;2022-11-14T03:32:05;4.80;99.90
16974;DHT22;8603;46.944;7.412;2022-11-14T03:34:31;4.80;99.90
16974;DHT22;8603;46.944;7.412;2022-11-14T03:36:56;4.80;99.90
16974;DHT22;8603;46.944;7.412;2022-11-14T03:39:22;4.90;99.90
16974;DHT22;8603;46.944;7.412;2022-11-14T03:41:48;4.80;99.90
16974;DHT22;8603;46.944;7.412;2022-11-14T03:44:13;4.90;99.90
16974;DHT22;8603;46.944;7.412;2022-11-14T03:46:39;4.90;99.90
16974;DHT22;8603;46.944;7.412;2022-11-14T03:49:04;4.90;99.90
16974;DHT22;8603;46.944;7.412;2022-11-14T03:51:30;4.90;99.90
16974;DHT22;8603;46.944;7.412;2022-11-14T03:53:56;5.00;99.90
16974;DHT22;8603;46.944;7.412;2022-11-14T03:56:22;5.00;99.90
16974;DHT22;8603;46.944;7.412;2022-11-14T03:58:47;5.00;99.90
16974;DHT22;8603;46.944;7.412;2022-11-14T04:01:13;5.00;99.90
16974;DHT22;8603;46.944;7.412;2022-11-14T04:03:38;5.00;99.90
16974;DHT22;8603;46.944;7.412;2022-11-14T04:06:04;5.10;99.90
16974;DHT22;8603;46.944;7.412;2022-11-14T04:08:30;5.10;99.90
16974;DHT22;8603;46.944;7.412;2022-11-14T04:10:55;5.10;99.90
16974;DHT22;8603;46.944;7.412;2022-11-14T04:13:21;5.10;99.90
16974;DHT22;8603;46.944;7.412;2022-11-14T04:15:53;5.10;99.90
16974;DHT22;8603;46.944;7.412;2022-11-14T04:18:19;5.10;99.90
16974;DHT22;8603;46.944;7.412;2022-11-14T04:20:44;5.10;99.90
16974;DHT22;8603;46.944;7.412;2022-11-14T04:23:10;5.10;99.90
16974;DHT22;8603;46.944;7.412;2022-11-14T04:25:35;5.10;99.90
16974;DHT22;8603;46.944;7.412;2022-11-14T04:28:01;5.20;99.90
16974;DHT22;8603;46.944;7.412;2022-11-14T04:30:26;5.20;99.90
16974;DHT22;8603;46.944;7.412;2022-11-14T04:32:52;5.20;99.90
16974;DHT22;8603;46.944;7.412;2022-11-14T04:35:17;5.20;99.90
16974;DHT22;8603;46.944;7.412;2022-11-14T04:37:43;5.20;99.90
16974;DHT22;8603;46.944;7.412;2022-11-14T04:40:10;5.20;99.90
16974;DHT22;8603;46.944;7.412;2022-11-14T04:42:35;5.20;99.90
16974;DHT22;8603;46.944;7.412;2022-11-14T04:45:01;5.20;99.90
16974;DHT22;8603;46.944;7.412;2022-11-14T04:47:27;5.20;99.90
16974;DHT22;8603;46.944;7.412;2022-11-14T04:49:52;5.20;99.90
16974;DHT22;8603;46.944;7.412;2022-11-14T04:52:18;5.20;99.90
16974;DHT22;8603;46.944;7.412;2022-11-14T04:54:43;5.20;99.90
16974;DHT22;8603;46.944;7.412;2022-11-14T04:57:09;5.20;99.90
16974;DHT22;8603;46.944;7.412;2022-11-14T04:59:34;5.20;99.90
16974;DHT22;8603;46.944;7.412;2022-11-14T05:02:00;5.30;99.90
16974;DHT22;8603;46.944;7.412;2022-11-14T05:04:26;5.30;99.90
16974;DHT22;8603;46.944;7.412;2022-11-14T05:06:51;5.30;99.90
16974;DHT22;8603;46.944;7.412;2022-11-14T05:09:17;5.30;99.90
16974;DHT22;8603;46.944;7.412;2022-11-14T05:11:42;5.40;99.90
16974;DHT22;8603;46.944;7.412;2022-11-14T05:14:08;5.40;99.90
16974;DHT22;8603;46.944;7.412;2022-11-14T05:16:33;5.40;99.90
16974;DHT22;8603;46.944;7.412;2022-11-14T05:18:59;5.40;99.90
16974;DHT22;8603;46.944;7.412;2022-11-14T05:21:24;5.40;99.90
16974;DHT22;8603;46.944;7.412;2022-11-14T05:23:50;5.40;99.90
16974;DHT22;8603;46.944;7.412;2022-11-14T05:26:17;5.40;99.90
16974;DHT22;8603;46.944;7.412;2022-11-14T05:28:43;5.50;99.90
16974;DHT22;8603;46.944;7.412;2022-11-14T05:31:10;5.50;99.90
16974;DHT22;8603;46.944;7.412;2022-11-14T05:33:38;5.50;99.90
16974;DHT22;8603;46.944;7.412;2022-11-14T05:36:09;5.50;99.90
16974;DHT22;8603;46.944;7.412;2022-11-14T05:38:35;5.60;99.90
16974;DHT22;8603;46.944;7.412;2022-11-14T05:41:08;5.60;99.90
16974;DHT22;8603;46.944;7.412;2022-11-14T05:43:34;5.50;99.90
16974;DHT22;8603;46.944;7.412;2022-11-14T05:46:01;5.60;99.90
16974;DHT22;8603;46.944;7.412;2022-11-14T05:48:28;5.60;99.90
16974;DHT22;8603;46.944;7.412;2022-11-14T05:50:55;5.60;99.90
16974;DHT22;8603;46.944;7.412;2022-11-14T05:53:20;5.60;99.90
16974;DHT22;8603;46.944;7.412;2022-11-14T05:55:46;5.60;99.90
16974;DHT22;8603;46.944;7.412;2022-11-14T05:58:11;5.60;99.90
16974;DHT22;8603;46.944;7.412;2022-11-14T06:00:38;5.60;99.90
16974;DHT22;8603;46.944;7.412;2022-11-14T06:03:04;5.60;99.90
16974;DHT22;8603;46.944;7.412;2022-11-14T06:05:29;5.70;99.90
16974;DHT22;8603;46.944;7.412;2022-11-14T06:07:56;5.70;99.90
16974;DHT22;8603;46.944;7.412;2022-11-14T06:10:23;5.70;99.90
16974;DHT22;8603;46.944;7.412;2022-11-14T06:12:49;5.70;99.90
16974;DHT22;8603;46.944;7.412;2022-11-14T06:15:15;5.80;99.90
16974;DHT22;8603;46.944;7.412;2022-11-14T06:17:41;5.70;99.90
16974;DHT22;8603;46.944;7.412;2022-11-14T06:20:07;5.80;99.90
16974;DHT22;8603;46.944;7.412;2022-11-14T06:22:33;5.80;99.90
16974;DHT22;8603;46.944;7.412;2022-11-14T06:25:03;5.80;99.90
16974;DHT22;8603;46.944;7.412;2022-11-14T06:27:28;5.80;99.90
16974;DHT22;8603;46.944;7.412;2022-11-14T06:29:54;5.80;99.90
16974;DHT22;8603;46.944;7.412;2022-11-14T06:32:19;5.80;99.90
16974;DHT22;8603;46.944;7.412;2022-11-14T06:34:45;5.80;99.90
16974;DHT22;8603;46.944;7.412;2022-11-14T06:37:13;5.80;99.90
16974;DHT22;8603;46.944;7.412;2022-11-14T06:40:10;5.80;99.90
16974;DHT22;8603;46.944;7.412;2022-11-14T06:42:35;5.80;99.90
16974;DHT22;8603;46.944;7.412;2022-11-14T06:45:04;5.80;99.90
16974;DHT22;8603;46.944;7.412;2022-11-14T06:47:47;5.80;99.90
16974;DHT22;8603;46.944;7.412;2022-11-14T06:50:17;5.80;99.90
16974;DHT22;8603;46.944;7.412;2022-11-14T06:52:43;5.80;99.90
16974;DHT22;8603;46.944;7.412;2022-11-14T06:55:09;5.80;99.90
16974;DHT22;8603;46.944;7.412;2022-11-14T06:57:37;5.90;99.90
16974;DHT22;8603;46.944;7.412;2022-11-14T07:00:10;5.90;99.90
16974;DHT22;8603;46.944;7.412;2022-11-14T07:02:39;5.90;99.90
16974;DHT22;8603;46.944;7.412;2022-11-14T07:05:05;5.90;99.90
16974;DHT22;8603;46.944;7.412;2022-11-14T07:07:33;5.90;99.90
16974;DHT22;8603;46.944;7.412;2022-11-14T07:09:58;6.00;99.90
16974;DHT22;8603;46.944;7.412;2022-11-14T07:12:24;6.00;99.90
16974;DHT22;8603;46.944;7.412;2022-11-14T07:14:50;6.00;99.90
16974;DHT22;8603;46.944;7.412;2022-11-14T07:17:15;6.00;99.90
16974;DHT22;8603;46.944;7.412;2022-11-14T07:19:41;6.00;99.90
16974;DHT22;8603;46.944;7.412;2022-11-14T07:22:13;6.00;99.90
16974;DHT22;8603;46.944;7.412;2022-11-14T07:24:41;6.10;99.90
16974;DHT22;8603;46.944;7.412;2022-11-14T07:27:10;6.10;99.90
16974;DHT22;8603;46.944;7.412;2022-11-14T07:32:46;6.10;99.90
16974;DHT22;8603;46.944;7.412;2022-11-14T07:35:21;6.20;99.90
16974;DHT22;8603;46.944;7.412;2022-11-14T07:38:04;6.20;99.90
16974;DHT22;8603;46.944;7.412;2022-11-14T07:40:33;6.30;99.90
16974;DHT22;8603;46.944;7.412;2022-11-14T07:43:02;6.30;99.90
16974;DHT22;8603;46.944;7.412;2022-11-14T07:45:28;6.40;99.90
16974;DHT22;8603;46.944;7.412;2022-11-14T07:47:59;6.40;99.90
16974;DHT22;8603;46.944;7.412;2022-11-14T07:50:27;6.40;99.90
16974;DHT22;8603;46.944;7.412;2022-11-14T07:52:54;6.50;99.90
16974;DHT22;8603;46.944;7.412;2022-11-14T07:55:21;6.50;99.90
16974;DHT22;8603;46.944;7.412;2022-11-14T07:57:49;6.50;99.90
16974;DHT22;8603;46.944;7.412;2022-11-14T08:00:16;6.60;99.90
16974;DHT22;8603;46.944;7.412;2022-11-14T08:02:42;6.70;99.90
16974;DHT22;8603;46.944;7.412;2022-11-14T08:05:08;6.70;99.90
16974;DHT22;8603;46.944;7.412;2022-11-14T08:07:33;6.80;99.90
16974;DHT22;8603;46.944;7.412;2022-11-14T08:09:59;6.90;99.90
16974;DHT22;8603;46.944;7.412;2022-11-14T08:12:25;6.90;99.90
16974;DHT22;8603;46.944;7.412;2022-11-14T08:14:50;7.00;99.90
16974;DHT22;8603;46.944;7.412;2022-11-14T08:17:16;7.10;99.90
16974;DHT22;8603;46.944;7.412;2022-11-14T08:19:41;7.10;99.90
16974;DHT22;8603;46.944;7.412;2022-11-14T08:22:07;7.10;99.90
16974;DHT22;8603;46.944;7.412;2022-11-14T08:24:32;7.20;99.90
16974;DHT22;8603;46.944;7.412;2022-11-14T08:26:58;7.20;99.90
16974;DHT22;8603;46.944;7.412;2022-11-14T08:29:23;7.20;99.90
16974;DHT22;8603;46.944;7.412;2022-11-14T08:31:49;7.30;99.90
16974;DHT22;8603;46.944;7.412;2022-11-14T08:34:15;7.30;99.90
16974;DHT22;8603;46.944;7.412;2022-11-14T08:36:41;7.40;99.90
16974;DHT22;8603;46.944;7.412;2022-11-14T08:39:06;7.40;99.90
16974;DHT22;8603;46.944;7.412;2022-11-14T08:41:32;7.50;99.90
16974;DHT22;8603;46.944;7.412;2022-11-14T08:43:57;7.60;99.90
16974;DHT22;8603;46.944;7.412;2022-11-14T08:46:26;7.70;99.90
16974;DHT22;8603;46.944;7.412;2022-11-14T08:48:54;7.80;99.90
16974;DHT22;8603;46.944;7.412;2022-11-14T08:51:22;7.90;99.90
16974;DHT22;8603;46.944;7.412;2022-11-14T08:53:48;7.90;99.90
16974;DHT22;8603;46.944;7.412;2022-11-14T08:56:15;8.10;99.90
16974;DHT22;8603;46.944;7.412;2022-11-14T08:58:41;8.30;99.90
16974;DHT22;8603;46.944;7.412;2022-11-14T09:01:06;8.40;99.90
16974;DHT22;8603;46.944;7.412;2022-11-14T09:03:33;8.50;99.90
16974;DHT22;8603;46.944;7.412;2022-11-14T09:06:00;8.60;99.90
16974;DHT22;8603;46.944;7.412;2022-11-14T09:08:27;8.60;99.90
16974;DHT22;8603;46.944;7.412;2022-11-14T09:10:52;8.60;99.90
16974;DHT22;8603;46.944;7.412;2022-11-14T09:13:18;8.70;99.90
16974;DHT22;8603;46.944;7.412;2022-11-14T09:15:44;8.70;99.90
16974;DHT22;8603;46.944;7.412;2022-11-14T09:18:10;8.80;99.90
16974;DHT22;8603;46.944;7.412;2022-11-14T09:20:36;8.90;99.90
16974;DHT22;8603;46.944;7.412;2022-11-14T09:23:03;9.00;99.90
16974;DHT22;8603;46.944;7.412;2022-11-14T09:25:29;9.00;99.90
16974;DHT22;8603;46.944;7.412;2022-11-14T09:27:55;9.00;99.90
16974;DHT22;8603;46.944;7.412;2022-11-14T09:30:21;9.00;99.90
16974;DHT22;8603;46.944;7.412;2022-11-14T09:32:49;9.20;99.90
16974;DHT22;8603;46.944;7.412;2022-11-14T09:35:15;9.00;99.90
16974;DHT22;8603;46.944;7.412;2022-11-14T09:37:41;9.20;99.90
16974;DHT22;8603;46.944;7.412;2022-11-14T09:40:07;9.20;99.90
16974;DHT22;8603;46.944;7.412;2022-11-14T09:45:00;9.10;99.90
16974;DHT22;8603;46.944;7.412;2022-11-14T09:47:44;9.10;99.90
16974;DHT22;8603;46.944;7.412;2022-11-14T09:50:21;9.00;99.90
16974;DHT22;8603;46.944;7.412;2022-11-14T09:52:53;8.90;99.90
16974;DHT22;8603;46.944;7.412;2022-11-14T09:55:30;9.00;99.90
16974;DHT22;8603;46.944;7.412;2022-11-14T09:57:56;9.00;99.90
16974;DHT22;8603;46.944;7.412;2022-11-14T10:00:28;9.10;99.90
16974;DHT22;8603;46.944;7.412;2022-11-14T10:03:09;9.10;99.90
16974;DHT22;8603;46.944;7.412;2022-11-14T10:08:42;9.20;99.90
16974;DHT22;8603;46.944;7.412;2022-11-14T10:11:16;9.30;99.90
16974;DHT22;8603;46.944;7.412;2022-11-14T10:18:46;9.30;99.90
16974;DHT22;8603;46.944;7.412;2022-11-14T10:21:23;9.40;99.90
16974;DHT22;8603;46.944;7.412;2022-11-14T10:24:04;9.40;99.90
16974;DHT22;8603;46.944;7.412;2022-11-14T10:27:26;9.40;99.90
16974;DHT22;8603;46.944;7.412;2022-11-14T10:32:28;9.60;99.90
16974;DHT22;8603;46.944;7.412;2022-11-14T10:35:18;9.70;99.90
16974;DHT22;8603;46.944;7.412;2022-11-14T10:38:10;9.80;99.90
16974;DHT22;8603;46.944;7.412;2022-11-14T10:40:49;9.70;99.90
16974;DHT22;8603;46.944;7.412;2022-11-14T10:43:31;9.70;99.90
16974;DHT22;8603;46.944;7.412;2022-11-14T10:46:06;9.80;99.90
16974;DHT22;8603;46.944;7.412;2022-11-14T10:48:42;9.80;99.90
16974;DHT22;8603;46.944;7.412;2022-11-14T10:54:12;9.80;99.90
16974;DHT22;8603;46.944;7.412;2022-11-14T10:56:46;9.80;99.90
16974;DHT22;8603;46.944;7.412;2022-11-14T10:59:12;9.90;99.90
16974;DHT22;8603;46.944;7.412;2022-11-14T11:01:40;9.90;99.90
16974;DHT22;8603;46.944;7.412;2022-11-14T11:04:33;9.90;99.90
16974;DHT22;8603;46.944;7.412;2022-11-14T11:09:59;10.10;99.90
16974;DHT22;8603;46.944;7.412;2022-11-14T11:12:47;10.10;99.90
16974;DHT22;8603;46.944;7.412;2022-11-14T11:15:20;10.10;99.90
16974;DHT22;8603;46.944;7.412;2022-11-14T11:20:30;10.30;99.90
16974;DHT22;8603;46.944;7.412;2022-11-14T11:25:30;10.50;99.90
16974;DHT22;8603;46.944;7.412;2022-11-14T11:30:29;10.60;99.90
16974;DHT22;8603;46.944;7.412;2022-11-14T11:32:55;10.60;99.90
16974;DHT22;8603;46.944;7.412;2022-11-14T11:35:21;10.60;99.90
16974;DHT22;8603;46.944;7.412;2022-11-14T11:37:57;10.60;99.90
16974;DHT22;8603;46.944;7.412;2022-11-14T11:40:26;10.60;99.90
16974;DHT22;8603;46.944;7.412;2022-11-14T11:43:02;10.60;99.90
16974;DHT22;8603;46.944;7.412;2022-11-14T11:45:32;10.60;99.90
16974;DHT22;8603;46.944;7.412;2022-11-14T11:48:04;10.50;99.90
16974;DHT22;8603;46.944;7.412;2022-11-14T11:50:32;10.50;99.90
16974;DHT22;8603;46.944;7.412;2022-11-14T11:55:33;10.60;99.90
16974;DHT22;8603;46.944;7.412;2022-11-14T11:58:08;10.70;99.90
16974;DHT22;8603;46.944;7.412;2022-11-14T12:00:36;10.90;99.90
16974;DHT22;8603;46.944;7.412;2022-11-14T12:03:02;10.80;99.90
16974;DHT22;8603;46.944;7.412;2022-11-14T12:08:05;10.80;99.90
16974;DHT22;8603;46.944;7.412;2022-11-14T12:10:38;10.80;99.90
16974;DHT22;8603;46.944;7.412;2022-11-14T12:13:20;10.80;99.90
16974;DHT22;8603;46.944;7.412;2022-11-14T12:30:21;10.10;99.90
16974;DHT22;8603;46.944;7.412;2022-11-14T12:33:44;10.10;99.90
16974;DHT22;8603;46.944;7.412;2022-11-14T12:35:55;10.00;99.90
16974;DHT22;8603;46.944;7.412;2022-11-14T12:38:22;9.90;99.90
16974;DHT22;8603;46.944;7.412;2022-11-14T12:40:54;9.80;99.90
16974;DHT22;8603;46.944;7.412;2022-11-14T13:55:55;10.00;99.90
16974;DHT22;8603;46.944;7.412;2022-11-14T14:16:57;10.40;99.90
16974;DHT22;8603;46.944;7.412;2022-11-14T14:19:40;10.30;99.90
16974;DHT22;8603;46.944;7.412;2022-11-14T14:22:21;10.30;99.90
16974;DHT22;8603;46.944;7.412;2022-11-14T14:27:33;10.30;99.90
16974;DHT22;8603;46.944;7.412;2022-11-14T14:32:31;10.30;99.90
16974;DHT22;8603;46.944;7.412;2022-11-14T14:34:57;10.20;99.90
16974;DHT22;8603;46.944;7.412;2022-11-14T14:37:27;10.20;99.90
16974;DHT22;8603;46.944;7.412;2022-11-14T14:40:05;10.20;99.90
16974;DHT22;8603;46.944;7.412;2022-11-14T14:42:39;10.20;99.90
16974;DHT22;8603;46.944;7.412;2022-11-14T14:45:13;10.10;99.90
16974;DHT22;8603;46.944;7.412;2022-11-14T14:47:42;10.10;99.90
16974;DHT22;8603;46.944;7.412;2022-11-14T14:50:23;10.10;99.90
16974;DHT22;8603;46.944;7.412;2022-11-14T14:53:02;10.10;99.90
16974;DHT22;8603;46.944;7.412;2022-11-14T14:55:33;10.10;99.90
16974;DHT22;8603;46.944;7.412;2022-11-14T14:58:21;10.10;99.90
16974;DHT22;8603;46.944;7.412;2022-11-14T15:01:03;10.00;99.90
16974;DHT22;8603;46.944;7.412;2022-11-14T15:03:36;10.00;99.90
16974;DHT22;8603;46.944;7.412;2022-11-14T15:08:43;9.80;99.90
16974;DHT22;8603;46.944;7.412;2022-11-14T15:11:10;9.80;99.90
16974;DHT22;8603;46.944;7.412;2022-11-14T15:13:38;9.70;99.90
16974;DHT22;8603;46.944;7.412;2022-11-14T15:16:05;9.70;99.90
16974;DHT22;8603;46.944;7.412;2022-11-14T15:18:32;9.60;99.90
16974;DHT22;8603;46.944;7.412;2022-11-14T15:26:36;9.50;99.90
16974;DHT22;8603;46.944;7.412;2022-11-14T15:29:26;9.40;99.90
16974;DHT22;8603;46.944;7.412;2022-11-14T15:31:54;9.40;99.90
16974;DHT22;8603;46.944;7.412;2022-11-14T15:34:38;9.30;99.90
16974;DHT22;8603;46.944;7.412;2022-11-14T15:39:41;9.20;99.90
16974;DHT22;8603;46.944;7.412;2022-11-14T15:42:27;9.20;99.90
16974;DHT22;8603;46.944;7.412;2022-11-14T15:44:59;9.10;99.90
16974;DHT22;8603;46.944;7.412;2022-11-14T15:47:33;9.10;99.90
16974;DHT22;8603;46.944;7.412;2022-11-14T15:50:04;9.00;99.90
16974;DHT22;8603;46.944;7.412;2022-11-14T15:52:36;9.00;99.90
16974;DHT22;8603;46.944;7.412;2022-11-14T15:55:09;8.90;99.90
16974;DHT22;8603;46.944;7.412;2022-11-14T15:57:36;8.90;99.90
16974;DHT22;8603;46.944;7.412;2022-11-14T16:00:03;8.80;99.90
16974;DHT22;8603;46.944;7.412;2022-11-14T16:02:31;8.80;99.90
16974;DHT22;8603;46.944;7.412;2022-11-14T16:04:59;8.70;99.90
16974;DHT22;8603;46.944;7.412;2022-11-14T16:07:24;8.70;99.90
16974;DHT22;8603;46.944;7.412;2022-11-14T16:09:50;8.60;99.90
16974;DHT22;8603;46.944;7.412;2022-11-14T16:12:16;8.60;99.90
16974;DHT22;8603;46.944;7.412;2022-11-14T16:14:42;8.50;99.90
16974;DHT22;8603;46.944;7.412;2022-11-14T16:17:15;8.50;99.90
16974;DHT22;8603;46.944;7.412;2022-11-14T16:19:41;8.50;99.90
16974;DHT22;8603;46.944;7.412;2022-11-14T16:22:11;8.40;99.90
16974;DHT22;8603;46.944;7.412;2022-11-14T16:24:37;8.40;99.90
16974;DHT22;8603;46.944;7.412;2022-11-14T16:27:03;8.40;99.90
16974;DHT22;8603;46.944;7.412;2022-11-14T16:29:28;8.40;99.90
16974;DHT22;8603;46.944;7.412;2022-11-14T16:31:54;8.40;99.90
16974;DHT22;8603;46.944;7.412;2022-11-14T16:34:22;8.30;99.90
16974;DHT22;8603;46.944;7.412;2022-11-14T16:36:48;8.30;99.90
16974;DHT22;8603;46.944;7.412;2022-11-14T16:39:15;8.20;99.90
16974;DHT22;8603;46.944;7.412;2022-11-14T16:41:41;8.10;99.90
16974;DHT22;8603;46.944;7.412;2022-11-14T16:44:12;8.10;99.90
16974;DHT22;8603;46.944;7.412;2022-11-14T16:46:39;8.10;99.90
16974;DHT22;8603;46.944;7.412;2022-11-14T16:49:08;8.00;99.90
16974;DHT22;8603;46.944;7.412;2022-11-14T16:51:35;7.90;99.90
16974;DHT22;8603;46.944;7.412;2022-11-14T16:54:02;7.90;99.90
16974;DHT22;8603;46.944;7.412;2022-11-14T16:56:28;7.90;99.90
16974;DHT22;8603;46.944;7.412;2022-11-14T16:58:55;7.90;99.90
16974;DHT22;8603;46.944;7.412;2022-11-14T17:01:21;7.90;99.90
16974;DHT22;8603;46.944;7.412;2022-11-14T17:03:46;7.90;99.90
16974;DHT22;8603;46.944;7.412;2022-11-14T17:06:12;7.90;99.90
16974;DHT22;8603;46.944;7.412;2022-11-14T17:08:37;7.80;99.90
16974;DHT22;8603;46.944;7.412;2022-11-14T17:11:08;7.80;99.90
16974;DHT22;8603;46.944;7.412;2022-11-14T17:13:34;7.80;99.90
16974;DHT22;8603;46.944;7.412;2022-11-14T17:16:01;7.60;99.90
16974;DHT22;8603;46.944;7.412;2022-11-14T17:18:27;7.60;99.90
16974;DHT22;8603;46.944;7.412;2022-11-14T17:20:52;7.60;99.90
16974;DHT22;8603;46.944;7.412;2022-11-14T17:23:18;7.50;99.90
16974;DHT22;8603;46.944;7.412;2022-11-14T17:25:44;7.40;99.90
16974;DHT22;8603;46.944;7.412;2022-11-14T17:28:09;7.40;99.90
16974;DHT22;8603;46.944;7.412;2022-11-14T17:30:42;7.30;99.90
16974;DHT22;8603;46.944;7.412;2022-11-14T17:33:08;7.30;99.90
16974;DHT22;8603;46.944;7.412;2022-11-14T17:35:34;7.30;99.90
16974;DHT22;8603;46.944;7.412;2022-11-14T17:38:00;7.10;99.90
16974;DHT22;8603;46.944;7.412;2022-11-14T17:40:26;7.10;99.90
16974;DHT22;8603;46.944;7.412;2022-11-14T18:10:18;6.80;99.90
16974;DHT22;8603;46.944;7.412;2022-11-14T18:13:19;6.90;99.90
16974;DHT22;8603;46.944;7.412;2022-11-14T18:23:08;6.80;99.90
16974;DHT22;8603;46.944;7.412;2022-11-14T18:25:52;6.60;99.90
16974;DHT22;8603;46.944;7.412;2022-11-14T18:42:48;6.20;99.90
16974;DHT22;8603;46.944;7.412;2022-11-14T18:45:27;6.10;99.90
16974;DHT22;8603;46.944;7.412;2022-11-14T18:47:56;6.00;99.90
16974;DHT22;8603;46.944;7.412;2022-11-14T18:50:22;5.90;99.90
16974;DHT22;8603;46.944;7.412;2022-11-14T18:52:47;5.90;99.90
16974;DHT22;8603;46.944;7.412;2022-11-14T18:55:13;5.90;99.90
16974;DHT22;8603;46.944;7.412;2022-11-14T18:57:44;5.80;99.90
16974;DHT22;8603;46.944;7.412;2022-11-14T19:00:17;5.80;99.90
16974;DHT22;8603;46.944;7.412;2022-11-14T19:06:07;5.70;99.90
16974;DHT22;8603;46.944;7.412;2022-11-14T19:08:43;5.60;99.90
16974;DHT22;8603;46.944;7.412;2022-11-14T19:11:14;5.60;99.90
16974;DHT22;8603;46.944;7.412;2022-11-14T19:14:03;5.50;99.90
16974;DHT22;8603;46.944;7.412;2022-11-14T19:16:32;5.50;99.90
16974;DHT22;8603;46.944;7.412;2022-11-14T19:18:58;5.40;99.90
16974;DHT22;8603;46.944;7.412;2022-11-14T19:21:25;5.40;99.90
16974;DHT22;8603;46.944;7.412;2022-11-14T19:24:04;5.30;99.90
16974;DHT22;8603;46.944;7.412;2022-11-14T19:26:55;5.30;99.90
16974;DHT22;8603;46.944;7.412;2022-11-14T19:29:32;5.20;99.90
16974;DHT22;8603;46.944;7.412;2022-11-14T19:32:03;5.20;99.90
16974;DHT22;8603;46.944;7.412;2022-11-14T19:34:39;5.10;99.90
16974;DHT22;8603;46.944;7.412;2022-11-14T19:37:05;5.10;99.90
16974;DHT22;8603;46.944;7.412;2022-11-14T19:39:30;5.10;99.90
16974;DHT22;8603;46.944;7.412;2022-11-14T19:41:57;5.10;99.90
16974;DHT22;8603;46.944;7.412;2022-11-14T19:44:22;5.10;99.90
16974;DHT22;8603;46.944;7.412;2022-11-14T19:46:48;5.00;99.90
16974;DHT22;8603;46.944;7.412;2022-11-14T19:49:14;5.00;99.90